Time;durP1;ratioP1;P1;durP2;ratioP2;P2;SDS_P1;SDS_P2;PMS_P1;PMS_P2;Temp;Humidity;BMP_temperature;BMP_pressure;BME280_temperature;BME280_humidity;BME280_pressure;Samples;Min_cycle;Max_cycle;Signal;HPM_P1;HPM_P2
2022/08/03 00:00:54;;;;;;;;;6.00;6.00;;;;;27.88;46.52;100994.78;2087448;28;48028;-57
2022/08/03 00:01:55;;;;;;;;;4.20;4.20;;;;;27.88;46.16;100989.31;2087339;28;47336;-59
2022/08/03 00:02:55;;;;;;;;;4.00;4.00;;;;;27.88;46.19;100993.91;2087550;28;47525;-59
2022/08/03 00:03:56;;;;;;;;;3.50;3.50;;;;;27.85;46.17;100995.06;2087499;28;48191;-59
2022/08/03 00:04:56;;;;;;;;;4.00;4.00;;;;;27.84;45.94;100996.06;2087385;28;47511;-58
2022/08/03 00:05:57;;;;;;;;;3.75;3.75;;;;;27.83;45.57;101006.13;2087557;28;47765;-60
2022/08/03 00:06:57;;;;;;;;;4.25;4.00;;;;;27.81;46.09;100999.91;2087069;28;47664;-57
2022/08/03 00:07:58;;;;;;;;;3.25;3.25;;;;;27.81;45.92;100999.03;2088307;28;47607;-60
2022/08/03 00:08:59;;;;;;;;;4.00;4.00;;;;;27.80;45.59;101000.91;2104245;28;47755;-60
2022/08/03 00:09:59;;;;;;;;;3.75;3.75;;;;;27.77;45.72;100998.47;2103012;28;47830;-60
2022/08/03 00:11:00;;;;;;;;;3.00;3.00;;;;;27.78;45.77;101004.78;2105237;27;47890;-57
2022/08/03 00:12:00;;;;;;;;;5.25;5.25;;;;;27.76;46.02;101007.66;2105542;28;47378;-58
2022/08/03 00:13:01;;;;;;;;;4.75;4.25;;;;;27.74;45.46;101001.47;2100756;28;46694;-58
2022/08/03 00:14:03;;;;;;;;;4.25;4.25;;;;;27.72;46.01;101006.22;2103272;28;47222;-59
2022/08/03 00:15:04;;;;;;;;;5.00;5.00;;;;;27.72;45.84;101011.66;2105095;27;47249;-59
2022/08/03 00:16:04;;;;;;;;;4.60;4.60;;;;;27.70;46.24;101000.03;2105012;27;47466;-60
2022/08/03 00:17:05;;;;;;;;;4.00;4.00;;;;;27.68;46.04;100999.28;2105118;27;47669;-58
2022/08/03 00:18:05;;;;;;;;;5.25;5.25;;;;;27.68;46.14;101003.88;2105428;27;47987;-59
2022/08/03 00:19:06;;;;;;;;;8.50;8.50;;;;;27.66;46.48;101006.72;2105063;28;47765;-57
2022/08/03 00:20:07;;;;;;;;;7.25;6.50;;;;;27.64;46.12;101006.00;2104860;28;47884;-58
2022/08/03 00:21:08;;;;;;;;;5.00;4.80;;;;;27.63;46.12;101006.97;2096701;28;47720;-57
2022/08/03 00:22:08;;;;;;;;;2.50;1.75;;;;;27.58;45.54;101003.81;2104075;28;47521;-60
2022/08/03 00:23:09;;;;;;;;;10.75;10.75;;;;;27.58;45.92;101006.53;2105091;28;47529;-60
2022/08/03 00:24:09;;;;;;;;;8.50;7.25;;;;;27.57;46.03;101007.53;2104945;27;47832;-58
2022/08/03 00:25:10;;;;;;;;;6.75;5.50;;;;;27.56;46.08;101008.50;2105420;27;47952;-58
2022/08/03 00:26:10;;;;;;;;;4.75;4.75;;;;;27.55;45.74;101006.78;2105200;28;47371;-58
2022/08/03 00:27:10;;;;;;;;;4.75;3.75;;;;;27.52;46.25;101013.38;2105121;28;47301;-58
2022/08/03 00:28:11;;;;;;;;;3.75;3.75;;;;;27.51;45.74;101008.94;2104931;27;47029;-59
2022/08/03 00:29:11;;;;;;;;;4.00;4.00;;;;;27.49;45.69;101010.94;2105010;28;47270;-58
2022/08/03 00:30:11;;;;;;;;;4.00;4.00;;;;;27.47;46.00;101010.22;2105052;28;47573;-59
2022/08/03 00:31:12;;;;;;;;;2.00;2.00;;;;;27.46;46.51;101010.34;2107016;27;47234;-58
2022/08/03 00:32:12;;;;;;;;;1.75;1.75;;;;;27.44;46.37;101005.03;2103545;28;47993;-58
2022/08/03 00:33:13;;;;;;;;;3.00;3.00;;;;;27.41;45.85;101004.41;2104451;28;47673;-56
2022/08/03 00:34:13;;;;;;;;;2.50;2.00;;;;;27.41;45.74;101005.28;2100539;28;47282;-58
2022/08/03 00:35:14;;;;;;;;;4.25;3.75;;;;;27.41;45.56;101008.00;2100303;27;47839;-58
2022/08/03 00:36:14;;;;;;;;;3.00;3.00;;;;;27.41;45.95;101009.88;2112869;27;47475;-55
2022/08/03 00:37:15;;;;;;;;;6.75;4.00;;;;;27.38;45.92;101004.69;2112973;27;47756;-58
2022/08/03 00:38:15;;;;;;;;;3.00;3.00;;;;;27.40;45.92;101005.41;2103929;27;48290;-57
2022/08/03 00:39:15;;;;;;;;;3.75;3.75;;;;;27.39;45.76;101003.69;2104821;28;47614;-60
2022/08/03 00:40:17;;;;;;;;;6.75;6.50;;;;;27.38;46.14;100996.50;2104886;28;46570;-58
2022/08/03 00:41:17;;;;;;;;;6.00;6.00;;;;;27.39;46.02;101000.97;2096104;28;48252;-60
2022/08/03 00:42:17;;;;;;;;;5.50;5.50;;;;;27.38;45.87;101002.81;2100530;28;47589;-58
2022/08/03 00:43:18;;;;;;;;;7.00;7.00;;;;;27.40;45.99;101003.56;2104588;28;47558;-59
2022/08/03 00:44:18;;;;;;;;;6.25;6.25;;;;;27.38;45.66;100989.19;2104240;28;47335;-58
2022/08/03 00:45:25;;;;;;;;;7.00;7.00;;;;;27.39;46.35;101006.41;2099063;28;48027;-59
2022/08/03 00:46:25;;;;;;;;;6.40;6.40;;;;;27.38;46.30;101004.69;2105086;27;47729;-58
2022/08/03 00:47:25;;;;;;;;;6.75;6.50;;;;;27.36;46.25;101002.09;2104879;28;47390;-57
2022/08/03 00:48:26;;;;;;;;;4.00;4.00;;;;;27.36;46.19;100995.78;2105224;27;47412;-59
2022/08/03 00:49:26;;;;;;;;;6.75;6.75;;;;;27.34;46.61;101001.38;2105046;27;47519;-59
2022/08/03 00:50:29;;;;;;;;;9.00;6.75;;;;;27.33;46.18;101002.38;2104331;28;47858;-59
2022/08/03 00:51:30;;;;;;;;;6.80;6.00;;;;;27.32;46.32;100997.06;2103910;28;45810;-58
2022/08/03 00:52:31;;;;;;;;;4.40;4.40;;;;;27.32;46.52;100997.94;2102830;28;47962;-58
2022/08/03 00:53:34;;;;;;;;;4.00;4.00;;;;;27.32;46.53;100997.94;2104870;28;47324;-58
2022/08/03 00:54:38;;;;;;;;;5.80;5.40;;;;;27.30;46.63;100994.44;2113088;27;47474;-57
2022/08/03 00:55:39;;;;;;;;;5.60;5.40;;;;;27.31;46.38;100992.59;2108397;27;47461;-58
2022/08/03 00:56:41;;;;;;;;;4.80;4.80;;;;;27.28;46.37;100999.19;2104973;27;47598;-58
2022/08/03 00:57:42;;;;;;;;;5.20;5.20;;;;;27.28;46.36;100996.44;2102719;27;47737;-58
2022/08/03 00:58:45;;;;;;;;;4.00;4.00;;;;;27.27;46.65;100994.72;2103262;28;48115;-59
2022/08/03 00:59:45;;;;;;;;;4.80;3.60;;;;;27.26;46.71;100996.59;2104746;27;47355;-59
2022/08/03 01:00:45;;;;;;;;;4.33;3.00;;;;;27.24;46.84;100990.41;2101035;27;47481;-58
2022/08/03 01:01:46;;;;;;;;;4.25;3.25;;;;;27.24;46.47;100990.41;2101735;28;47990;-59
2022/08/03 01:02:47;;;;;;;;;3.00;3.00;;;;;27.23;46.31;100991.41;2105090;27;47900;-57
2022/08/03 01:03:47;;;;;;;;;5.00;4.00;;;;;27.23;46.27;100993.28;2105064;27;45428;-58
2022/08/03 01:04:47;;;;;;;;;3.00;3.00;;;;;27.21;46.61;100998.88;2105100;27;47958;-58
2022/08/03 01:05:51;;;;;;;;;2.75;2.75;;;;;27.20;46.69;100988.97;2104791;28;46970;-57
2022/08/03 01:06:56;;;;;;;;;2.80;2.80;;;;;27.18;46.73;100993.66;2104520;28;47387;-59
2022/08/03 01:08:21;;;;;;;;;4.60;2.00;;;;;27.17;46.41;100994.66;2096697;28;47753;-57
2022/08/03 01:09:54;;;;;;;;;3.60;2.60;;;;;27.16;46.65;100992.94;2096093;28;47293;-58
2022/08/03 01:11:03;;;;;;;;;0.00;0.00;;;;;27.14;46.60;100986.75;2112162;27;45994;-59
2022/08/03 01:12:16;;;;;;;;;2.40;2.40;;;;;27.13;46.23;100984.16;2111877;27;48176;-59
2022/08/03 01:13:19;;;;;;;;;3.40;3.40;;;;;27.10;46.95;100985.31;2104728;27;47768;-58
2022/08/03 01:14:59;;;;;;;;;3.60;3.00;;;;;27.09;46.38;100985.44;2104676;27;47724;-58
2022/08/03 01:16:12;;;;;;;;;4.60;3.20;;;;;27.09;46.68;100982.72;2070317;28;47331;-62
2022/08/03 01:17:27;;;;;;;;;2.00;2.00;;;;;27.07;46.73;100980.13;2070765;28;47841;-58
2022/08/03 01:18:37;;;;;;;;;2.25;2.25;;;;;27.07;46.62;100982.00;2070638;28;47779;-57
2022/08/03 01:20:05;;;;;;;;;2.75;2.75;;;;;27.06;46.74;100981.13;2070833;28;47552;-58
2022/08/03 01:21:30;;;;;;;;;2.25;2.25;;;;;27.05;46.55;100978.50;2070411;28;47442;-58
2022/08/03 01:22:39;;;;;;;;;2.00;2.00;;;;;27.04;46.50;100979.50;2070473;28;47650;-58
2022/08/03 01:23:54;;;;;;;;;1.40;1.40;;;;;27.04;46.85;100979.50;2069416;28;47158;-59
2022/08/03 01:25:12;;;;;;;;;3.00;3.00;;;;;27.02;47.16;100982.38;2066522;28;48473;-56
2022/08/03 01:26:21;;;;;;;;;3.00;3.00;;;;;27.01;46.77;100977.94;2070417;28;47630;-58
2022/08/03 01:27:30;;;;;;;;;3.20;3.20;;;;;26.99;47.04;100978.03;2070644;28;47309;-57
2022/08/03 01:29:01;;;;;;;;;4.25;3.00;;;;;26.97;47.04;100968.28;2070868;28;48298;-58
2022/08/03 01:30:05;;;;;;;;;3.60;3.60;;;;;26.97;46.77;100971.84;2070622;28;47549;-58
2022/08/03 01:31:09;;;;;;;;;4.20;3.80;;;;;26.96;46.90;100972.84;2072287;28;47738;-60
2022/08/03 01:32:41;;;;;;;;;1.50;1.50;;;;;26.96;46.92;100972.00;2070734;28;47806;-57
2022/08/03 01:33:48;;;;;;;;;2.00;2.00;;;;;26.96;47.11;100972.00;2070854;28;47878;-58
2022/08/03 01:34:57;;;;;;;;;4.20;3.00;;;;;26.94;47.23;100974.84;2067775;28;47903;-59
2022/08/03 01:36:01;;;;;;;;;3.00;3.00;;;;;26.94;46.72;100965.81;2070742;28;47641;-59
2022/08/03 01:37:06;;;;;;;;;2.40;2.40;;;;;26.93;46.84;100962.22;2070537;28;47410;-59
2022/08/03 01:38:12;;;;;;;;;4.40;4.40;;;;;26.93;46.90;100964.06;2070511;28;47599;-59
2022/08/03 01:39:15;;;;;;;;;2.00;2.00;;;;;26.92;46.65;100970.50;2070297;28;47652;-59
2022/08/03 01:40:18;;;;;;;;;4.40;4.40;;;;;26.90;46.76;100964.34;2070257;28;47621;-59
2022/08/03 01:41:27;;;;;;;;;4.20;4.20;;;;;26.90;47.17;100967.91;2051608;28;47547;-58
2022/08/03 01:42:31;;;;;;;;;3.00;3.00;;;;;26.90;47.00;100967.06;2052570;28;48150;-59
2022/08/03 01:43:33;;;;;;;;;2.80;2.80;;;;;26.90;46.90;100962.47;2070759;28;48128;-58
2022/08/03 01:44:40;;;;;;;;;3.60;3.60;;;;;26.90;46.98;100967.06;2070608;28;45612;-58
2022/08/03 01:45:42;;;;;;;;;6.80;5.60;;;;;26.90;46.77;100959.75;2070390;28;48118;-56
2022/08/03 01:46:47;;;;;;;;;3.20;2.80;;;;;26.91;46.53;100966.06;2070506;28;47811;-59
2022/08/03 01:47:48;;;;;;;;;4.00;4.00;;;;;26.89;46.77;100957.16;2070949;28;47911;-58
2022/08/03 01:48:49;;;;;;;;;4.60;4.60;;;;;26.89;46.58;100960.75;2070317;28;47867;-58
2022/08/03 01:49:51;;;;;;;;;5.25;4.75;;;;;26.88;46.73;100958.16;2070461;28;48171;-59
2022/08/03 01:50:55;;;;;;;;;5.40;5.20;;;;;26.86;47.37;100958.28;2070404;28;47562;-59
2022/08/03 01:51:56;;;;;;;;;4.50;4.50;;;;;26.85;47.23;100951.13;2070285;28;47595;-58
2022/08/03 01:52:57;;;;;;;;;5.60;4.60;;;;;26.84;46.76;100956.72;2075552;27;48171;-57
2022/08/03 01:54:00;;;;;;;;;4.00;4.00;;;;;26.82;47.22;100954.13;2104487;28;47795;-58
2022/08/03 01:55:03;;;;;;;;;4.00;4.00;;;;;26.83;47.30;100954.97;2103949;28;48036;-57
2022/08/03 01:56:05;;;;;;;;;3.00;3.00;;;;;26.81;46.57;100959.69;2104675;27;47840;-57
2022/08/03 01:57:07;;;;;;;;;5.00;5.00;;;;;26.78;46.95;100949.91;2104564;27;47722;-58
2022/08/03 01:58:08;;;;;;;;;4.40;4.00;;;;;26.77;46.65;100952.78;2100444;27;47302;-59
2022/08/03 01:59:13;;;;;;;;;3.40;3.20;;;;;26.75;47.49;100955.63;2103916;28;47379;-58
2022/08/03 02:00:14;;;;;;;;;4.80;4.00;;;;;26.74;47.04;100962.06;2096356;28;47482;-59
2022/08/03 02:01:16;;;;;;;;;5.00;4.50;;;;;26.76;47.30;100959.22;2104515;28;47255;-58
2022/08/03 02:02:19;;;;;;;;;5.00;4.00;;;;;26.75;47.23;100961.06;2105155;27;45527;-59
2022/08/03 02:03:22;;;;;;;;;5.00;5.00;;;;;26.76;46.73;100959.22;2103770;28;47570;-59
2022/08/03 02:04:24;;;;;;;;;4.00;4.00;;;;;26.75;47.74;100962.94;2103632;28;47429;-56
2022/08/03 02:05:26;;;;;;;;;4.00;4.00;;;;;26.75;47.63;100954.75;2099099;28;47720;-57
2022/08/03 02:06:31;;;;;;;;;5.40;5.40;;;;;26.73;47.57;100956.75;2104615;27;48016;-57
2022/08/03 02:07:33;;;;;;;;;5.00;4.00;;;;;26.73;47.45;100959.47;2104692;27;47991;-59
2022/08/03 02:08:34;;;;;;;;;4.20;3.20;;;;;26.74;46.98;100953.03;2104265;27;47742;-57
2022/08/03 02:09:38;;;;;;;;;9.60;6.80;;;;;26.73;46.90;100954.03;2104857;27;47571;-57
2022/08/03 02:10:40;;;;;;;;;3.00;3.00;;;;;26.74;47.57;100953.91;2104422;27;47600;-58
2022/08/03 02:11:42;;;;;;;;;6.60;4.00;;;;;26.74;47.08;100953.91;2104819;27;48111;-59
2022/08/03 02:12:44;;;;;;;;;4.60;4.20;;;;;26.74;46.75;100953.03;2104399;27;47476;-57
2022/08/03 02:13:48;;;;;;;;;5.00;5.00;;;;;26.73;47.41;100944.00;2104244;27;47482;-58
2022/08/03 02:14:49;;;;;;;;;4.00;4.00;;;;;26.73;47.33;100951.31;2104601;27;47348;-57
2022/08/03 02:15:51;;;;;;;;;3.00;3.00;;;;;26.73;47.33;100945.88;2104960;27;47516;-58
2022/08/03 02:16:54;;;;;;;;;4.00;4.00;;;;;26.72;46.91;100947.72;2104387;27;47581;-59
2022/08/03 02:17:56;;;;;;;;;5.60;4.80;;;;;26.73;46.93;100941.28;2104810;27;47874;-58
2022/08/03 02:18:58;;;;;;;;;4.20;4.20;;;;;26.73;47.11;100946.72;2104729;28;46357;-58
2022/08/03 02:20:01;;;;;;;;;4.40;3.80;;;;;26.73;47.55;100949.44;2104723;27;48095;-58
2022/08/03 02:21:03;;;;;;;;;3.80;3.40;;;;;26.73;47.35;100945.88;2105593;27;47856;-58
2022/08/03 02:22:07;;;;;;;;;5.00;3.00;;;;;26.72;47.25;100947.72;2106945;27;47857;-58
2022/08/03 02:23:08;;;;;;;;;3.20;3.20;;;;;26.73;47.03;100938.56;2110603;27;48005;-57
2022/08/03 02:24:09;;;;;;;;;4.75;4.00;;;;;26.73;46.97;100937.69;2100678;28;47009;-58
2022/08/03 02:25:12;;;;;;;;;3.20;3.20;;;;;26.75;47.42;100943.88;2105362;28;47992;-58
2022/08/03 02:26:16;;;;;;;;;3.00;3.00;;;;;26.75;47.67;100936.56;2106176;27;47953;-57
2022/08/03 02:27:28;;;;;;;;;3.00;3.00;;;;;26.75;47.45;100941.16;2105948;27;47771;-59
2022/08/03 02:28:33;;;;;;;;;3.20;3.20;;;;;26.76;47.76;100942.88;2106126;27;47704;-58
2022/08/03 02:29:38;;;;;;;;;3.00;3.00;;;;;26.74;47.30;100936.72;2105699;27;47699;-58
2022/08/03 02:30:44;;;;;;;;;3.80;2.80;;;;;26.73;46.95;100930.41;2107917;27;47601;-58
2022/08/03 02:31:47;;;;;;;;;2.40;2.00;;;;;26.74;47.38;100933.97;2106279;27;47649;-58
2022/08/03 02:32:54;;;;;;;;;3.80;2.00;;;;;26.72;47.78;100928.66;2106087;27;47498;-56
2022/08/03 02:34:00;;;;;;;;;3.00;0.00;;;;;26.73;46.92;100934.97;2096035;28;47621;-58
2022/08/03 02:35:02;;;;;;;;;3.40;3.00;;;;;26.75;47.02;100936.56;2094257;28;48406;-59
2022/08/03 02:36:05;;;;;;;;;3.40;3.40;;;;;26.74;47.41;100937.56;2103432;28;45777;-58
2022/08/03 02:37:07;;;;;;;;;2.20;2.20;;;;;26.74;47.10;100933.97;2105976;27;48084;-58
2022/08/03 02:38:11;;;;;;;;;3.80;3.40;;;;;26.74;47.58;100934.84;2106064;27;47424;-57
2022/08/03 02:39:15;;;;;;;;;2.00;2.00;;;;;26.73;47.35;100935.84;2105872;27;48220;-59
2022/08/03 02:40:18;;;;;;;;;3.00;3.00;;;;;26.73;46.95;100934.97;2106230;27;47468;-58
2022/08/03 02:41:24;;;;;;;;;1.80;1.80;;;;;26.73;47.51;100930.41;2105572;27;48299;-58
2022/08/03 02:42:27;;;;;;;;;2.20;2.20;;;;;26.74;47.01;100929.41;2105396;28;47504;-58
2022/08/03 02:43:30;;;;;;;;;1.20;1.00;;;;;26.74;47.45;100929.41;2096508;28;47654;-58
2022/08/03 02:44:33;;;;;;;;;3.80;2.00;;;;;26.73;47.46;100929.53;2096840;28;47701;-59
2022/08/03 02:45:45;;;;;;;;;1.60;1.60;;;;;26.71;47.40;100926.94;2105197;28;47806;-58
2022/08/03 02:46:48;;;;;;;;;3.00;3.00;;;;;26.72;47.25;100936.84;2106518;27;47808;-58
2022/08/03 02:47:53;;;;;;;;;2.00;2.00;;;;;26.71;47.18;100929.66;2106018;27;47818;-58
2022/08/03 02:48:55;;;;;;;;;2.00;2.00;;;;;26.72;47.11;100933.25;2105838;28;47830;-59
2022/08/03 02:49:58;;;;;;;;;2.00;2.00;;;;;26.71;47.36;100934.25;2105080;28;47421;-59
2022/08/03 02:51:02;;;;;;;;;3.00;3.00;;;;;26.71;47.26;100939.69;2105667;27;47899;-59
2022/08/03 02:52:08;;;;;;;;;1.00;1.00;;;;;26.69;46.92;100931.66;2105768;27;47549;-58
2022/08/03 02:53:10;;;;;;;;;2.00;2.00;;;;;26.68;47.13;100933.53;2105149;28;47699;-57
2022/08/03 02:54:15;;;;;;;;;2.00;2.00;;;;;26.67;46.93;100934.50;2104960;28;47326;-58
2022/08/03 02:55:20;;;;;;;;;3.40;3.40;;;;;26.65;47.30;100935.63;2101550;28;46401;-57
2022/08/03 02:56:24;;;;;;;;;1.00;1.00;;;;;26.64;47.47;100926.59;2105266;28;47640;-58
2022/08/03 02:57:27;;;;;;;;;1.40;1.40;;;;;26.64;47.33;100929.31;2105885;27;47416;-59
2022/08/03 02:58:30;;;;;;;;;1.60;1.60;;;;;26.64;47.65;100925.72;2105223;28;47464;-59
2022/08/03 02:59:31;;;;;;;;;1.80;1.00;;;;;26.63;47.43;100930.31;2112279;27;47708;-58
2022/08/03 03:00:32;;;;;;;;;1.00;1.00;;;;;26.60;47.76;100930.59;2105693;27;47605;-59
2022/08/03 03:01:32;;;;;;;;;1.40;1.20;;;;;26.60;47.54;100927.88;2105628;27;47756;-59
2022/08/03 03:02:34;;;;;;;;;2.00;2.00;;;;;26.60;47.65;100927.00;2106008;27;47497;-58
2022/08/03 03:03:34;;;;;;;;;1.00;1.00;;;;;26.58;47.40;100924.41;2105647;27;46190;-58
2022/08/03 03:04:36;;;;;;;;;1.50;1.50;;;;;26.58;47.67;100926.28;2105228;28;47186;-57
2022/08/03 03:05:37;;;;;;;;;1.60;1.60;;;;;26.58;47.06;100923.56;2105040;28;47534;-58
2022/08/03 03:06:39;;;;;;;;;1.20;1.20;;;;;26.57;47.63;100914.53;2105637;27;45803;-57
2022/08/03 03:07:41;;;;;;;;;1.00;1.00;;;;;26.56;47.73;100920.97;2105776;27;47770;-59
2022/08/03 03:08:42;;;;;;;;;2.40;2.00;;;;;26.56;47.60;100917.38;2105149;28;47191;-59
2022/08/03 03:09:43;;;;;;;;;0.00;0.00;;;;;26.55;47.27;100913.78;2105518;28;47403;-59
2022/08/03 03:10:45;;;;;;;;;1.80;1.80;;;;;26.54;47.09;100916.63;2105533;27;47901;-58
2022/08/03 03:11:48;;;;;;;;;2.00;1.60;;;;;26.52;47.15;100910.44;2105697;27;47712;-59
2022/08/03 03:12:55;;;;;;;;;2.00;2.00;;;;;26.52;47.30;100914.03;2105820;27;47508;-57
2022/08/03 03:13:56;;;;;;;;;1.40;1.40;;;;;26.51;47.58;100912.31;2106527;27;47462;-60
2022/08/03 03:14:56;;;;;;;;;1.40;1.40;;;;;26.51;47.75;100919.63;2104924;28;47743;-58
2022/08/03 03:16:02;;;;;;;;;2.25;1.00;;;;;26.49;47.83;100919.75;2099767;28;47881;-57
2022/08/03 03:17:05;;;;;;;;;2.00;2.00;;;;;26.50;47.90;100916.03;2105265;28;47812;-58
2022/08/03 03:18:08;;;;;;;;;2.00;1.00;;;;;26.50;47.77;100907.00;2105616;28;46362;-59
2022/08/03 03:19:10;;;;;;;;;1.60;0.00;;;;;26.50;47.30;100912.44;2105627;27;47582;-58
2022/08/03 03:20:13;;;;;;;;;3.00;1.00;;;;;26.49;47.44;100908.88;2105626;27;47784;-57
2022/08/03 03:21:18;;;;;;;;;1.75;1.75;;;;;26.49;47.95;100911.59;2105190;27;47947;-59
2022/08/03 03:22:19;;;;;;;;;3.00;3.00;;;;;26.48;47.38;100911.72;2111866;27;47658;-60
2022/08/03 03:23:22;;;;;;;;;3.00;2.00;;;;;26.47;47.55;100910.84;2104810;28;48109;-58
2022/08/03 03:24:23;;;;;;;;;2.50;1.25;;;;;26.46;47.34;100919.16;2105188;28;47094;-59
2022/08/03 03:25:24;;;;;;;;;1.00;0.00;;;;;26.45;47.89;100912.84;2105429;28;47707;-58
2022/08/03 03:26:24;;;;;;;;;1.75;1.00;;;;;26.46;48.08;100913.72;2105751;27;47865;-59
2022/08/03 03:27:25;;;;;;;;;2.00;2.00;;;;;26.47;47.28;100918.16;2105998;27;47424;-60
2022/08/03 03:28:26;;;;;;;;;1.50;1.50;;;;;26.47;47.99;100913.56;2105736;28;47104;-59
2022/08/03 03:29:27;;;;;;;;;2.00;2.00;;;;;26.47;47.23;100916.31;2105721;27;47755;-57
2022/08/03 03:30:28;;;;;;;;;2.50;1.25;;;;;26.48;48.05;100918.03;2107099;27;47707;-56
2022/08/03 03:31:29;;;;;;;;;2.20;2.20;;;;;26.49;47.51;100908.88;2106017;27;45199;-57
2022/08/03 03:32:30;;;;;;;;;1.00;1.00;;;;;26.47;47.92;100912.72;2094897;28;47851;-59
2022/08/03 03:33:32;;;;;;;;;1.00;1.00;;;;;26.47;47.62;100916.31;2096004;28;47307;-59
2022/08/03 03:34:33;;;;;;;;;1.80;1.80;;;;;26.45;47.88;100912.84;2104295;28;47605;-59
2022/08/03 03:35:34;;;;;;;;;1.00;1.00;;;;;26.43;47.75;100908.53;2099840;27;47334;-59
2022/08/03 03:36:34;;;;;;;;;1.00;1.00;;;;;26.43;47.82;100916.69;2105640;27;47132;-59
2022/08/03 03:37:35;;;;;;;;;2.50;2.25;;;;;26.40;47.09;100912.34;2105395;27;48131;-59
2022/08/03 03:38:35;;;;;;;;;2.00;2.00;;;;;26.42;48.08;100912.22;2105788;27;47197;-58
2022/08/03 03:39:36;;;;;;;;;2.00;2.00;;;;;26.42;47.31;100923.09;2105963;27;47576;-58
2022/08/03 03:40:37;;;;;;;;;2.00;2.00;;;;;26.40;48.14;100915.06;2105517;27;47145;-58
2022/08/03 03:41:38;;;;;;;;;1.80;1.80;;;;;26.38;48.02;100917.06;2105644;27;47591;-58
2022/08/03 03:42:39;;;;;;;;;2.00;1.00;;;;;26.34;48.14;100916.44;2105329;27;47315;-57
2022/08/03 03:43:40;;;;;;;;;2.00;1.80;;;;;26.32;47.85;100913.00;2105538;27;47363;-59
2022/08/03 03:44:41;;;;;;;;;2.00;2.00;;;;;26.32;48.34;100909.41;2105194;27;47309;-60
2022/08/03 03:45:41;;;;;;;;;1.00;1.00;;;;;26.32;47.81;100909.41;2105279;27;47462;-58
2022/08/03 03:46:42;;;;;;;;;2.00;2.00;;;;;26.33;47.89;100916.56;2105275;27;47334;-58
2022/08/03 03:47:43;;;;;;;;;2.00;1.00;;;;;26.32;47.56;100909.41;2105402;27;47601;-58
2022/08/03 03:48:43;;;;;;;;;5.33;4.00;;;;;26.32;47.84;100913.00;2105491;27;47375;-59
2022/08/03 03:49:44;;;;;;;;;1.33;1.33;;;;;26.32;47.98;100906.69;2105549;27;48222;-58
2022/08/03 03:50:47;;;;;;;;;2.50;2.50;;;;;26.32;48.11;100909.41;2105093;27;47502;-59
2022/08/03 03:51:52;;;;;;;;;2.00;2.00;;;;;26.30;47.66;100905.97;2104708;28;47347;-58
2022/08/03 03:52:52;;;;;;;;;3.50;1.00;;;;;26.30;47.80;100911.41;2102963;28;47204;-58
2022/08/03 03:53:57;;;;;;;;;3.00;2.00;;;;;26.30;47.97;100911.41;2105613;27;47919;-58
2022/08/03 03:54:58;;;;;;;;;1.00;1.00;;;;;26.30;48.40;100905.97;2102529;28;47278;-59
2022/08/03 03:55:59;;;;;;;;;3.00;3.00;;;;;26.28;47.81;100903.34;2104500;27;48086;-59
2022/08/03 03:56:59;;;;;;;;;1.00;1.00;;;;;26.29;47.76;100909.66;2105344;28;48047;-59
2022/08/03 03:58:00;;;;;;;;;2.67;2.67;;;;;26.29;48.26;100910.50;2101261;28;47817;-59
2022/08/03 03:59:00;;;;;;;;;2.67;2.67;;;;;26.30;48.33;100908.69;2105363;27;47677;-59
2022/08/03 04:00:01;;;;;;;;;3.00;3.00;;;;;26.29;48.45;100905.06;2105363;27;48187;-59
2022/08/03 04:01:01;;;;;;;;;2.00;2.00;;;;;26.30;48.31;100908.69;2105962;27;47708;-59
2022/08/03 04:02:02;;;;;;;;;2.67;2.00;;;;;26.29;47.69;100904.19;2103986;28;47971;-58
2022/08/03 04:03:02;;;;;;;;;3.25;2.25;;;;;26.29;48.12;100905.06;2079422;28;45772;-57
2022/08/03 04:10:57;;;;;;;;;2.75;1.75;;;;;26.28;47.80;100906.06;2084193;28;47230;-58
2022/08/03 04:10:57;;;;;;;;;1.75;1.75;;;;;26.24;48.03;100904.59;2088087;28;47627;-60
2022/08/03 04:12:00;;;;;;;;;2.75;2.75;;;;;26.21;48.70;100907.59;2087887;28;45829;-59
2022/08/03 04:13:05;;;;;;;;;2.50;2.50;;;;;26.20;48.24;100913.16;2087440;28;47458;-57
2022/08/03 04:14:13;;;;;;;;;2.00;2.00;;;;;26.18;48.83;100910.56;2087588;28;47446;-57
2022/08/03 04:15:16;;;;;;;;;2.80;2.80;;;;;26.16;48.83;100904.38;2087354;28;47926;-59
2022/08/03 04:16:20;;;;;;;;;2.40;2.40;;;;;26.16;48.39;100909.81;2087971;28;47356;-58
2022/08/03 04:17:25;;;;;;;;;1.00;1.00;;;;;26.16;48.66;100908.94;2087334;28;47857;-60
2022/08/03 04:18:28;;;;;;;;;2.00;2.00;;;;;26.15;48.23;100915.38;2087498;28;47747;-58
2022/08/03 04:19:41;;;;;;;;;3.20;3.20;;;;;26.14;48.36;100917.25;2087701;28;46797;-59
2022/08/03 04:20:46;;;;;;;;;1.60;1.60;;;;;26.12;48.21;100908.34;2087216;28;47508;-59
2022/08/03 04:21:51;;;;;;;;;2.00;2.00;;;;;26.11;48.50;100912.06;2087082;28;47399;-59
2022/08/03 04:22:54;;;;;;;;;2.00;2.00;;;;;26.11;48.75;100910.22;2087352;28;47479;-58
2022/08/03 04:23:59;;;;;;;;;2.00;2.00;;;;;26.14;48.37;100916.38;2087390;28;47818;-59
2022/08/03 04:25:07;;;;;;;;;3.20;2.60;;;;;26.14;48.57;100905.50;2087445;28;47893;-58
2022/08/03 04:26:11;;;;;;;;;2.80;2.80;;;;;26.13;48.00;100907.34;2087404;28;47596;-59
2022/08/03 04:27:15;;;;;;;;;2.40;2.40;;;;;26.13;48.48;100920.09;2087451;28;47726;-57
2022/08/03 04:28:17;;;;;;;;;2.60;2.60;;;;;26.10;48.45;100911.22;2087438;28;47623;-58
2022/08/03 04:29:19;;;;;;;;;3.00;1.00;;;;;26.10;48.95;100913.06;2087385;28;47834;-57
2022/08/03 04:30:21;;;;;;;;;3.40;3.00;;;;;26.09;48.96;100908.63;2087620;28;47262;-56
2022/08/03 04:31:24;;;;;;;;;2.80;2.60;;;;;26.06;48.90;100909.75;2088804;28;47430;-57
2022/08/03 04:32:27;;;;;;;;;0.80;0.80;;;;;26.05;48.91;100907.16;2087346;28;47517;-60
2022/08/03 04:33:31;;;;;;;;;3.40;2.80;;;;;26.06;48.54;100911.59;2087545;28;47975;-58
2022/08/03 04:34:31;;;;;;;;;3.00;3.00;;;;;26.06;48.56;100908.88;2092301;28;47478;-58
2022/08/03 04:35:35;;;;;;;;;3.50;3.00;;;;;26.05;48.46;100909.88;2104377;28;45716;-58
2022/08/03 04:36:46;;;;;;;;;2.40;2.40;;;;;26.03;48.70;100909.13;2104640;28;47386;-59
2022/08/03 04:37:50;;;;;;;;;3.40;3.40;;;;;26.04;48.75;100913.56;2104937;27;47706;-58
2022/08/03 04:39:05;;;;;;;;;3.40;2.40;;;;;26.05;49.29;100912.59;2105056;27;47154;-59
2022/08/03 04:40:12;;;;;;;;;1.00;1.00;;;;;26.04;49.01;100909.00;2105152;27;47714;-56
2022/08/03 04:41:13;;;;;;;;;4.20;3.00;;;;;26.04;49.05;100914.47;2101999;28;47981;-59
2022/08/03 04:42:14;;;;;;;;;4.00;4.00;;;;;26.04;49.09;100916.28;2105009;27;47372;-60
2022/08/03 04:43:17;;;;;;;;;4.60;3.60;;;;;26.03;48.69;100906.41;2105328;27;47039;-59
2022/08/03 04:44:20;;;;;;;;;3.00;3.00;;;;;26.03;49.18;100907.25;2104686;27;48145;-58
2022/08/03 04:45:21;;;;;;;;;3.20;3.00;;;;;26.05;49.16;100904.44;2105039;28;47121;-57
2022/08/03 04:46:27;;;;;;;;;2.40;2.40;;;;;26.06;49.29;100904.31;2104780;27;47210;-58
2022/08/03 04:47:30;;;;;;;;;2.00;2.00;;;;;26.06;48.55;100912.47;2107281;27;48041;-57
2022/08/03 04:48:31;;;;;;;;;6.80;4.60;;;;;26.07;49.13;100908.75;2098992;28;47526;-59
2022/08/03 04:49:35;;;;;;;;;5.50;3.75;;;;;26.10;49.14;100910.34;2105077;27;48001;-59
2022/08/03 04:50:35;;;;;;;;;2.20;2.20;;;;;26.09;48.64;100904.03;2104858;27;47964;-59
2022/08/03 04:51:39;;;;;;;;;4.00;4.00;;;;;26.13;48.54;100911.94;2105256;27;47378;-58
2022/08/03 04:52:39;;;;;;;;;4.00;4.00;;;;;26.14;48.68;100910.94;2100091;27;46832;-59
2022/08/03 04:53:42;;;;;;;;;3.25;3.25;;;;;26.16;48.89;100906.22;2101982;28;47317;-59
2022/08/03 04:54:44;;;;;;;;;4.00;4.00;;;;;26.16;49.07;100904.38;2104399;28;47920;-57
2022/08/03 04:55:44;;;;;;;;;3.00;3.00;;;;;26.16;48.94;100907.09;2104906;28;47694;-59
2022/08/03 04:56:45;;;;;;;;;3.00;3.00;;;;;26.17;48.86;100914.28;2104330;28;47635;-59
2022/08/03 04:57:45;;;;;;;;;3.00;3.00;;;;;26.16;49.00;100904.38;2105399;27;47406;-59
2022/08/03 04:58:45;;;;;;;;;4.75;3.00;;;;;26.18;49.16;100912.44;2097263;28;47665;-59
2022/08/03 04:59:48;;;;;;;;;4.00;2.25;;;;;26.18;48.55;100909.72;2096011;28;47318;-58
2022/08/03 05:00:50;;;;;;;;;1.80;1.80;;;;;26.17;48.88;100908.84;2104868;27;47885;-57